Airport View

Enter AWOS ICAO identifier for current METAR.

ex. KFNL

KCEF 280056Z 17006KT 10SM BKN017 BKN033 23/19 A2996 RMK AO2A SLP150 WND DATA ESTMD T02310192

28 Sep 2020 01:14

Other Area AWOS: KBAF - KBDL - KORE - KHFD

TAF KCEF 272100Z 2721/2903 19009KT 9999 BKN037 BKN250 QNH2992INS BECMG 2800/2801 15009KT 9999 BKN015 OVC030 QNH2994INS BECMG 2802/2803 VRB06KT 8000 BR OVC008 QNH2990INS TEMPO 2803/2810 4800 -DZ BR OVC006 BECMG 2809/2810 16005KT 3200 BR OVC005 QNH2990INS BECMG 2812/2813 17007KT 9999 NSW BKN008 OVC012 QNH2991INS BECMG 2814/2815 19010G15KT 9999 BKN015 510002 QNH2991INS BECMG 2816/2817 20010G18KT 9999 BKN030 BKN250 510002 QNH2990INS BECMG 2901/2902 18008KT 9999 OVC012 QNH2992INS TX27/2820Z TN18/2810Z LAST NO AMDS AFT 2803 NEXT 2813